Terminal Aerodrome Forecast
Issued by NWS

Current Version | Previous Version | Text Only | Print | Product List | Glossary On
Versions: 1 2 3 4 5 6 7 8 9 10 11 12 13 14 15 16 17 18 19 20 21 22 23 24 25 26 27 28
000
FTUS42 KCAE 311140
TAFOGB
TAF
KOGB 311140Z 3112/0112 VRB03KT 5SM BR OVC006
     FM311400 01005KT P6SM BKN014 BKN030
     FM311600 01006KT P6SM SCT035 BKN150
     FM010000 VRB03KT P6SM SCT200
     FM010600 VRB03KT 3SM BR SCT005 OVC012=

USA.gov is the U.S. government's official web portal to all federal, state and local government web resources and services.